Time;durP1;ratioP1;P1;durP2;ratioP2;P2;SDS_P1;SDS_P2;PMS_P1;PMS_P2;Temp;Humidity;BMP_temperature;BMP_pressure;BME280_temperature;BME280_humidity;BME280_pressure;Samples;Min_cycle;Max_cycle;Signal;HPM_P1;HPM_P2
2021/10/18 00:00:59;;;;;;;;;;;11.10;99.90;;;;;;5030977;28;20315;-78
2021/10/18 00:03:25;;;;;;;;;;;11.10;99.90;;;;;;5032785;28;19928;-78
2021/10/18 00:05:51;;;;;;;;;;;11.10;99.90;;;;;;5032636;28;20444;-78
2021/10/18 00:08:16;;;;;;;;;;;11.10;99.90;;;;;;5033219;28;19913;-77
2021/10/18 00:10:42;;;;;;;;;;;11.00;99.90;;;;;;5030869;28;19920;-77
2021/10/18 00:13:07;;;;;;;;;;;11.00;99.90;;;;;;5035147;28;19917;-78
2021/10/18 00:15:33;;;;;;;;;;;11.00;99.90;;;;;;5028575;28;19913;-79
2021/10/18 00:18:02;;;;;;;;;;;10.90;99.90;;;;;;5036032;28;20300;-79
2021/10/18 00:20:27;;;;;;;;;;;10.90;99.90;;;;;;5020567;28;19939;-76
2021/10/18 00:22:53;;;;;;;;;;;10.90;99.90;;;;;;5027046;28;19916;-77
2021/10/18 00:25:19;;;;;;;;;;;10.90;99.90;;;;;;5036216;28;19909;-77
2021/10/18 00:27:45;;;;;;;;;;;10.90;99.90;;;;;;5029501;28;20438;-78
2021/10/18 00:30:11;;;;;;;;;;;10.90;99.90;;;;;;5036329;28;20204;-76
2021/10/18 00:32:36;;;;;;;;;;;10.90;99.90;;;;;;5036306;28;19967;-78
2021/10/18 00:35:02;;;;;;;;;;;10.90;99.90;;;;;;5035474;28;19917;-78
2021/10/18 00:37:28;;;;;;;;;;;10.90;99.90;;;;;;5032334;28;19914;-78
2021/10/18 00:39:53;;;;;;;;;;;10.90;99.90;;;;;;5017848;28;19965;-78
2021/10/18 00:42:19;;;;;;;;;;;10.90;99.90;;;;;;5033186;28;19917;-77
2021/10/18 00:44:45;;;;;;;;;;;10.90;99.90;;;;;;5034724;28;20039;-78
2021/10/18 00:47:15;;;;;;;;;;;10.90;99.90;;;;;;5035356;28;19917;-76
2021/10/18 00:49:40;;;;;;;;;;;10.90;99.90;;;;;;5029015;28;19917;-77
2021/10/18 00:52:06;;;;;;;;;;;10.90;99.90;;;;;;5028617;28;20394;-78
2021/10/18 00:54:32;;;;;;;;;;;10.80;99.90;;;;;;5022840;28;20374;-78
2021/10/18 00:56:57;;;;;;;;;;;10.80;99.90;;;;;;5035820;28;19913;-78
2021/10/18 00:59:23;;;;;;;;;;;10.80;99.90;;;;;;5035438;28;19913;-78
2021/10/18 01:01:49;;;;;;;;;;;10.80;99.90;;;;;;5032052;28;19921;-78
2021/10/18 01:04:15;;;;;;;;;;;10.80;99.90;;;;;;5027319;28;20032;-76
2021/10/18 01:06:41;;;;;;;;;;;10.80;99.90;;;;;;5036023;28;20373;-77
2021/10/18 01:09:06;;;;;;;;;;;10.80;99.90;;;;;;5032499;28;20012;-78
2021/10/18 01:11:32;;;;;;;;;;;10.80;99.90;;;;;;5029779;28;19940;-78
2021/10/18 01:13:58;;;;;;;;;;;10.80;99.90;;;;;;5021364;28;20020;-78
2021/10/18 01:16:23;;;;;;;;;;;10.80;99.90;;;;;;5028722;28;19909;-79
2021/10/18 01:18:49;;;;;;;;;;;10.80;99.90;;;;;;5032553;28;19964;-78
2021/10/18 01:21:14;;;;;;;;;;;10.80;99.90;;;;;;5035435;28;19935;-78
2021/10/18 01:23:40;;;;;;;;;;;10.70;99.90;;;;;;5029911;28;19933;-77
2021/10/18 01:26:05;;;;;;;;;;;10.70;99.90;;;;;;5034241;28;19921;-79
2021/10/18 01:28:32;;;;;;;;;;;10.80;99.90;;;;;;5034981;28;20011;-79
2021/10/18 01:30:58;;;;;;;;;;;10.70;99.90;;;;;;5021583;28;19920;-78
2021/10/18 01:33:23;;;;;;;;;;;10.70;99.90;;;;;;5032615;28;19913;-77
2021/10/18 01:35:49;;;;;;;;;;;10.70;99.90;;;;;;5028818;28;20222;-77
2021/10/18 01:38:15;;;;;;;;;;;10.70;99.90;;;;;;5031294;28;20024;-77
2021/10/18 01:40:41;;;;;;;;;;;10.70;99.90;;;;;;5036152;28;19913;-77
2021/10/18 01:43:06;;;;;;;;;;;10.70;99.90;;;;;;5033472;28;20365;-78
2021/10/18 01:45:32;;;;;;;;;;;10.70;99.90;;;;;;5034334;28;19921;-77
2021/10/18 01:47:57;;;;;;;;;;;10.70;99.90;;;;;;5030195;28;19940;-78
2021/10/18 01:50:24;;;;;;;;;;;10.70;99.90;;;;;;5028820;28;19960;-77
2021/10/18 01:52:50;;;;;;;;;;;10.60;99.90;;;;;;5037859;28;19916;-78
2021/10/18 01:55:16;;;;;;;;;;;10.60;99.90;;;;;;5030269;28;19917;-78
2021/10/18 01:57:43;;;;;;;;;;;10.60;99.90;;;;;;5023593;28;20229;-77
2021/10/18 02:00:09;;;;;;;;;;;10.60;99.90;;;;;;5031883;28;20031;-78
2021/10/18 02:02:34;;;;;;;;;;;10.60;99.90;;;;;;5028385;28;20055;-78
2021/10/18 02:05:00;;;;;;;;;;;10.50;99.90;;;;;;5027363;28;19917;-77
2021/10/18 02:07:25;;;;;;;;;;;10.50;99.90;;;;;;5033126;28;19917;-77
2021/10/18 02:09:53;;;;;;;;;;;10.50;99.90;;;;;;5029660;28;19914;-76
2021/10/18 02:12:20;;;;;;;;;;;10.50;99.90;;;;;;5026997;28;19924;-77
2021/10/18 02:14:46;;;;;;;;;;;10.50;99.90;;;;;;5038829;28;19917;-78
2021/10/18 02:17:11;;;;;;;;;;;10.40;99.90;;;;;;5027283;28;20323;-78
2021/10/18 02:19:37;;;;;;;;;;;10.40;99.90;;;;;;5021854;28;20277;-78
2021/10/18 02:22:02;;;;;;;;;;;10.40;99.90;;;;;;5029395;28;19918;-78
2021/10/18 02:24:28;;;;;;;;;;;10.30;99.90;;;;;;5022107;28;20023;-78
2021/10/18 02:26:54;;;;;;;;;;;10.30;99.90;;;;;;5031976;28;19952;-78
2021/10/18 02:29:19;;;;;;;;;;;10.30;99.90;;;;;;5035208;28;19913;-78
2021/10/18 02:31:45;;;;;;;;;;;10.30;99.90;;;;;;5026081;28;19909;-78
2021/10/18 02:34:10;;;;;;;;;;;10.30;99.90;;;;;;5029169;28;19918;-78
2021/10/18 02:36:36;;;;;;;;;;;10.30;99.90;;;;;;5029168;28;20194;-78
2021/10/18 02:39:02;;;;;;;;;;;10.30;99.90;;;;;;5032476;28;19909;-78
2021/10/18 02:41:27;;;;;;;;;;;10.20;99.90;;;;;;5028791;28;19913;-78
2021/10/18 02:43:53;;;;;;;;;;;10.20;99.90;;;;;;5027967;28;19913;-78
2021/10/18 02:46:18;;;;;;;;;;;10.20;99.90;;;;;;5037595;28;20292;-78
2021/10/18 02:48:44;;;;;;;;;;;10.20;99.90;;;;;;5037083;28;20012;-78
2021/10/18 02:51:10;;;;;;;;;;;10.20;99.90;;;;;;5030389;28;19921;-78
2021/10/18 02:53:35;;;;;;;;;;;10.10;99.90;;;;;;5031293;28;19987;-78
2021/10/18 02:56:01;;;;;;;;;;;10.10;99.90;;;;;;5028943;28;20000;-77
2021/10/18 02:58:26;;;;;;;;;;;10.10;99.90;;;;;;5033024;28;19916;-78
2021/10/18 03:00:52;;;;;;;;;;;10.10;99.90;;;;;;5031343;28;20018;-78
2021/10/18 03:03:17;;;;;;;;;;;10.10;99.90;;;;;;5039337;28;19919;-78
2021/10/18 03:05:43;;;;;;;;;;;10.10;99.90;;;;;;5020310;28;19914;-78
2021/10/18 03:08:09;;;;;;;;;;;10.00;99.90;;;;;;5033431;28;19988;-78
2021/10/18 03:10:39;;;;;;;;;;;9.90;99.90;;;;;;5028749;28;19920;-78
2021/10/18 03:13:06;;;;;;;;;;;9.90;99.90;;;;;;5028684;28;19917;-78
2021/10/18 03:15:31;;;;;;;;;;;9.90;99.90;;;;;;5031604;28;19927;-77
2021/10/18 03:17:57;;;;;;;;;;;9.90;99.90;;;;;;5033482;28;19909;-78
2021/10/18 03:20:22;;;;;;;;;;;9.80;99.90;;;;;;5022632;28;19975;-78
2021/10/18 03:22:48;;;;;;;;;;;9.80;99.90;;;;;;5031699;28;19935;-78
2021/10/18 03:25:13;;;;;;;;;;;9.80;99.90;;;;;;5032291;28;19917;-78
2021/10/18 03:27:39;;;;;;;;;;;9.70;99.90;;;;;;5020369;28;19920;-78
2021/10/18 03:30:05;;;;;;;;;;;9.70;99.90;;;;;;5022137;28;19959;-78
2021/10/18 03:32:30;;;;;;;;;;;9.60;99.90;;;;;;5034318;28;19917;-77
2021/10/18 03:34:56;;;;;;;;;;;9.60;99.90;;;;;;5029193;28;20244;-78
2021/10/18 03:37:22;;;;;;;;;;;9.50;99.90;;;;;;5034600;28;19951;-77
2021/10/18 03:39:47;;;;;;;;;;;9.50;99.90;;;;;;5032518;28;19920;-78
2021/10/18 03:42:13;;;;;;;;;;;9.40;99.90;;;;;;5025491;28;20296;-78
2021/10/18 03:44:39;;;;;;;;;;;9.30;99.90;;;;;;5029408;28;19963;-78
2021/10/18 03:47:04;;;;;;;;;;;9.30;99.90;;;;;;5036036;28;19966;-78
2021/10/18 03:49:30;;;;;;;;;;;9.20;99.90;;;;;;5036344;28;20392;-78
2021/10/18 03:51:55;;;;;;;;;;;9.20;99.90;;;;;;5034563;28;19917;-78
2021/10/18 03:54:21;;;;;;;;;;;9.10;99.90;;;;;;5024340;28;19944;-77
2021/10/18 03:56:47;;;;;;;;;;;9.10;99.90;;;;;;5032813;28;20036;-78
2021/10/18 03:59:12;;;;;;;;;;;9.00;99.90;;;;;;5020003;28;19959;-78
2021/10/18 04:01:38;;;;;;;;;;;9.00;99.90;;;;;;5033695;28;20224;-78
2021/10/18 04:04:03;;;;;;;;;;;9.00;99.90;;;;;;5036080;28;19924;-77
2021/10/18 04:06:29;;;;;;;;;;;8.90;99.90;;;;;;5036109;28;20308;-78
2021/10/18 04:08:55;;;;;;;;;;;8.90;99.90;;;;;;5027067;28;19921;-77
2021/10/18 04:11:21;;;;;;;;;;;8.80;99.90;;;;;;5029114;28;20332;-76
2021/10/18 04:13:46;;;;;;;;;;;8.80;99.90;;;;;;5026816;28;20230;-77
2021/10/18 04:16:12;;;;;;;;;;;8.70;99.90;;;;;;5031139;28;20016;-78
2021/10/18 04:18:37;;;;;;;;;;;8.70;99.90;;;;;;5028586;28;20316;-78
2021/10/18 04:21:05;;;;;;;;;;;8.70;99.90;;;;;;5017758;28;19921;-77
2021/10/18 04:23:31;;;;;;;;;;;8.70;99.90;;;;;;5031824;28;20369;-76
2021/10/18 04:25:56;;;;;;;;;;;8.60;99.90;;;;;;5021930;28;19914;-78
2021/10/18 04:28:22;;;;;;;;;;;8.60;99.90;;;;;;5036051;28;19913;-78
2021/10/18 04:30:47;;;;;;;;;;;8.60;99.90;;;;;;5028164;28;19941;-77
2021/10/18 04:33:13;;;;;;;;;;;8.60;99.90;;;;;;5030516;28;19925;-76
2021/10/18 04:35:39;;;;;;;;;;;8.60;99.90;;;;;;5029196;28;20275;-77
2021/10/18 04:38:04;;;;;;;;;;;8.50;99.90;;;;;;5036173;28;19956;-77
2021/10/18 04:40:30;;;;;;;;;;;8.50;99.90;;;;;;5036025;28;19917;-77
2021/10/18 04:42:56;;;;;;;;;;;8.50;99.90;;;;;;5029921;28;19929;-77
2021/10/18 04:45:21;;;;;;;;;;;8.50;99.90;;;;;;5048144;28;19910;-77
2021/10/18 04:47:49;;;;;;;;;;;8.50;99.90;;;;;;5031066;28;19914;-77
2021/10/18 04:50:15;;;;;;;;;;;8.50;99.90;;;;;;5036791;28;19920;-77
2021/10/18 04:52:41;;;;;;;;;;;8.50;99.90;;;;;;5028092;28;19917;-76
2021/10/18 04:55:07;;;;;;;;;;;8.50;99.90;;;;;;5046613;28;20227;-76
2021/10/18 04:57:32;;;;;;;;;;;8.40;99.90;;;;;;5032381;28;19920;-76
2021/10/18 04:59:58;;;;;;;;;;;8.40;99.90;;;;;;5029273;28;20365;-77
2021/10/18 05:02:23;;;;;;;;;;;8.40;99.90;;;;;;5035282;28;19913;-77
2021/10/18 05:04:49;;;;;;;;;;;8.40;99.90;;;;;;5033593;28;19924;-78
2021/10/18 05:07:14;;;;;;;;;;;8.40;99.90;;;;;;5023988;28;20224;-77
2021/10/18 05:09:40;;;;;;;;;;;8.40;99.90;;;;;;5034196;28;20251;-77
2021/10/18 05:12:06;;;;;;;;;;;8.30;99.90;;;;;;5032623;28;19917;-77
2021/10/18 05:14:31;;;;;;;;;;;8.30;99.90;;;;;;5035259;28;19922;-76
2021/10/18 05:16:57;;;;;;;;;;;8.30;99.90;;;;;;5030131;28;19920;-76
2021/10/18 05:19:22;;;;;;;;;;;8.20;99.90;;;;;;5033873;28;20594;-76
2021/10/18 05:21:48;;;;;;;;;;;8.20;99.90;;;;;;5035529;28;19917;-76
2021/10/18 05:24:14;;;;;;;;;;;8.20;99.90;;;;;;5035007;28;20004;-77
2021/10/18 05:26:40;;;;;;;;;;;8.20;99.90;;;;;;5033344;28;20568;-78
2021/10/18 05:29:06;;;;;;;;;;;8.20;99.90;;;;;;5035049;28;20330;-77
2021/10/18 05:31:32;;;;;;;;;;;8.20;99.90;;;;;;5029488;28;20004;-77
2021/10/18 05:33:58;;;;;;;;;;;8.20;99.90;;;;;;5029643;28;19913;-78
2021/10/18 05:36:23;;;;;;;;;;;8.10;99.90;;;;;;5031999;28;20358;-77
2021/10/18 05:38:49;;;;;;;;;;;8.10;99.90;;;;;;5033041;28;19920;-77
2021/10/18 05:41:14;;;;;;;;;;;8.20;99.90;;;;;;5034929;28;19964;-76
2021/10/18 05:43:40;;;;;;;;;;;8.20;99.90;;;;;;5034428;28;20255;-75
2021/10/18 05:46:06;;;;;;;;;;;8.20;99.90;;;;;;5033086;28;19917;-76
2021/10/18 05:48:32;;;;;;;;;;;8.10;99.90;;;;;;5031818;28;22002;-76
2021/10/18 05:50:58;;;;;;;;;;;8.10;99.90;;;;;;5035110;28;19953;-77
2021/10/18 05:53:24;;;;;;;;;;;8.10;99.90;;;;;;5033929;28;19917;-76
2021/10/18 05:55:49;;;;;;;;;;;8.10;99.90;;;;;;5032745;28;19921;-76
2021/10/18 05:58:15;;;;;;;;;;;8.10;99.90;;;;;;5033699;28;19921;-76
2021/10/18 06:00:42;;;;;;;;;;;8.10;99.90;;;;;;5033371;28;19917;-76
2021/10/18 06:03:08;;;;;;;;;;;8.10;99.90;;;;;;5031370;28;19917;-77
2021/10/18 06:05:44;;;;;;;;;;;8.10;99.90;;;;;;5034398;28;20216;-76
2021/10/18 06:08:11;;;;;;;;;;;8.10;99.90;;;;;;5032276;28;19917;-77
2021/10/18 06:10:37;;;;;;;;;;;8.10;99.90;;;;;;5033522;28;19928;-77
2021/10/18 06:13:02;;;;;;;;;;;8.10;99.90;;;;;;5032222;28;20324;-77
2021/10/18 06:15:28;;;;;;;;;;;8.10;99.90;;;;;;5032454;28;20007;-77
2021/10/18 06:17:54;;;;;;;;;;;8.10;99.90;;;;;;5031176;28;20263;-77
2021/10/18 06:20:20;;;;;;;;;;;8.20;99.90;;;;;;5039197;28;20285;-77
2021/10/18 06:22:46;;;;;;;;;;;8.10;99.90;;;;;;5031015;28;19917;-76
2021/10/18 06:25:12;;;;;;;;;;;8.10;99.90;;;;;;5031417;28;20324;-77
2021/10/18 06:27:37;;;;;;;;;;;8.20;99.90;;;;;;5033156;28;19913;-77
2021/10/18 06:30:03;;;;;;;;;;;8.20;99.90;;;;;;5032379;28;19914;-77
2021/10/18 06:32:29;;;;;;;;;;;8.20;99.90;;;;;;5034967;28;19913;-78
2021/10/18 06:34:54;;;;;;;;;;;8.20;99.90;;;;;;5031078;28;19917;-77
2021/10/18 06:37:20;;;;;;;;;;;8.20;99.90;;;;;;5047193;28;20015;-75
2021/10/18 06:39:46;;;;;;;;;;;8.20;99.90;;;;;;5030428;28;20003;-77
2021/10/18 06:42:11;;;;;;;;;;;8.20;99.90;;;;;;5031717;28;19959;-77
2021/10/18 06:44:37;;;;;;;;;;;8.30;99.90;;;;;;5031809;28;19917;-78
2021/10/18 06:47:02;;;;;;;;;;;8.30;99.90;;;;;;5033936;28;20308;-77
2021/10/18 06:49:28;;;;;;;;;;;8.30;99.90;;;;;;5022206;28;19920;-76
2021/10/18 06:51:58;;;;;;;;;;;8.40;99.90;;;;;;5034889;28;19909;-77
2021/10/18 06:54:23;;;;;;;;;;;8.40;99.90;;;;;;5033784;28;20003;-77
2021/10/18 06:56:49;;;;;;;;;;;8.50;99.90;;;;;;5034015;28;20031;-77
2021/10/18 06:59:15;;;;;;;;;;;8.50;99.90;;;;;;5025907;28;19924;-77
2021/10/18 07:01:41;;;;;;;;;;;8.50;99.90;;;;;;5032820;28;19921;-77
2021/10/18 07:04:06;;;;;;;;;;;8.60;99.90;;;;;;5036621;28;19921;-77
2021/10/18 07:06:32;;;;;;;;;;;8.60;99.90;;;;;;5034048;28;20296;-76
2021/10/18 07:08:58;;;;;;;;;;;8.60;99.90;;;;;;5031614;28;19913;-77
2021/10/18 07:11:25;;;;;;;;;;;8.70;99.90;;;;;;5032990;28;20367;-77
2021/10/18 07:13:52;;;;;;;;;;;8.80;99.90;;;;;;5033957;28;19921;-76
2021/10/18 07:16:17;;;;;;;;;;;8.80;99.90;;;;;;5026065;28;19952;-78
2021/10/18 07:18:43;;;;;;;;;;;9.00;99.90;;;;;;5051775;28;19971;-78
2021/10/18 07:21:09;;;;;;;;;;;9.10;99.90;;;;;;5034980;28;19921;-77
2021/10/18 07:23:34;;;;;;;;;;;9.20;99.90;;;;;;5036856;28;19971;-77
2021/10/18 07:26:03;;;;;;;;;;;9.20;99.90;;;;;;5034483;28;19920;-77
2021/10/18 07:28:28;;;;;;;;;;;9.30;99.90;;;;;;5031469;28;20216;-77
2021/10/18 07:30:58;;;;;;;;;;;9.30;99.90;;;;;;5029564;28;19909;-77
2021/10/18 07:33:24;;;;;;;;;;;9.40;99.90;;;;;;5033568;28;20296;-77
2021/10/18 07:35:50;;;;;;;;;;;9.50;99.90;;;;;;5036135;28;19921;-78
2021/10/18 07:38:15;;;;;;;;;;;9.70;99.90;;;;;;5038348;28;20015;-77
2021/10/18 07:40:41;;;;;;;;;;;9.80;99.90;;;;;;5035576;28;19909;-75
2021/10/18 07:43:08;;;;;;;;;;;10.00;99.90;;;;;;5035991;28;19925;-77
2021/10/18 07:45:34;;;;;;;;;;;10.00;99.90;;;;;;5038379;28;20271;-77
2021/10/18 07:48:00;;;;;;;;;;;10.20;99.90;;;;;;5035473;28;20267;-78
2021/10/18 07:50:25;;;;;;;;;;;10.30;99.90;;;;;;5036743;28;19924;-76
2021/10/18 07:52:51;;;;;;;;;;;10.30;99.90;;;;;;5038433;28;19936;-77
2021/10/18 07:55:20;;;;;;;;;;;10.30;99.90;;;;;;5032596;28;19914;-77
2021/10/18 07:57:46;;;;;;;;;;;10.30;99.90;;;;;;5036680;28;19920;-77
2021/10/18 08:00:13;;;;;;;;;;;10.30;99.90;;;;;;5034053;28;19920;-77
2021/10/18 08:02:39;;;;;;;;;;;10.20;99.90;;;;;;5036586;28;19913;-77
2021/10/18 08:05:04;;;;;;;;;;;10.10;99.90;;;;;;5036150;28;19913;-77
2021/10/18 08:07:35;;;;;;;;;;;10.20;99.90;;;;;;5044452;28;19984;-78
2021/10/18 08:10:04;;;;;;;;;;;10.30;99.90;;;;;;5032087;28;19987;-77
2021/10/18 08:12:29;;;;;;;;;;;10.60;99.90;;;;;;5041301;28;19963;-77
2021/10/18 08:14:55;;;;;;;;;;;10.80;99.90;;;;;;5035907;28;20248;-78
2021/10/18 08:17:20;;;;;;;;;;;10.90;99.90;;;;;;5035172;28;20263;-76
2021/10/18 08:19:47;;;;;;;;;;;11.10;99.90;;;;;;5032687;28;20021;-77
2021/10/18 08:22:13;;;;;;;;;;;11.10;99.90;;;;;;5032254;28;20326;-78
2021/10/18 08:24:39;;;;;;;;;;;11.20;99.90;;;;;;5036674;28;19921;-77
2021/10/18 08:27:05;;;;;;;;;;;11.20;99.90;;;;;;5036668;28;19919;-78
2021/10/18 08:29:30;;;;;;;;;;;11.10;99.90;;;;;;5032587;28;19921;-77
2021/10/18 08:31:56;;;;;;;;;;;11.10;99.90;;;;;;5036236;28;19932;-77
2021/10/18 08:34:21;;;;;;;;;;;11.10;99.90;;;;;;5034694;28;19909;-76
2021/10/18 08:36:47;;;;;;;;;;;11.10;99.90;;;;;;5032839;28;19920;-78
2021/10/18 08:41:45;;;;;;;;;;;11.30;99.90;;;;;;5034208;28;19928;-76
2021/10/18 08:44:14;;;;;;;;;;;11.40;99.90;;;;;;5035296;28;19932;-76
2021/10/18 08:46:40;;;;;;;;;;;11.50;99.90;;;;;;5044266;28;20591;-77
2021/10/18 08:49:06;;;;;;;;;;;11.50;99.90;;;;;;5034493;28;19952;-77
2021/10/18 08:51:32;;;;;;;;;;;11.50;99.90;;;;;;5032962;28;19953;-78
2021/10/18 08:53:58;;;;;;;;;;;11.40;99.90;;;;;;5033841;28;20305;-78
2021/10/18 08:56:23;;;;;;;;;;;11.30;99.90;;;;;;5030235;28;19917;-77
2021/10/18 08:58:49;;;;;;;;;;;11.30;99.90;;;;;;5029797;28;19913;-77
2021/10/18 09:01:15;;;;;;;;;;;11.30;99.90;;;;;;5032993;28;19921;-77
2021/10/18 09:03:41;;;;;;;;;;;11.30;99.90;;;;;;5029933;28;19922;-77
2021/10/18 09:06:15;;;;;;;;;;;11.50;99.90;;;;;;5032322;28;19913;-77
2021/10/18 09:08:47;;;;;;;;;;;11.70;99.90;;;;;;5033292;28;19920;-77
2021/10/18 09:11:17;;;;;;;;;;;11.80;99.90;;;;;;5034396;28;19949;-78
2021/10/18 09:13:45;;;;;;;;;;;11.80;99.90;;;;;;5031483;28;19967;-77
2021/10/18 09:16:20;;;;;;;;;;;11.80;99.90;;;;;;5033200;28;19921;-78
2021/10/18 09:18:55;;;;;;;;;;;11.80;99.90;;;;;;5031283;28;20434;-78
2021/10/18 09:21:26;;;;;;;;;;;11.70;99.90;;;;;;5029619;28;19929;-78
2021/10/18 09:23:51;;;;;;;;;;;11.60;99.90;;;;;;5032203;28;19917;-76
2021/10/18 09:26:18;;;;;;;;;;;11.50;99.90;;;;;;5033365;28;19913;-78
2021/10/18 09:28:44;;;;;;;;;;;11.50;99.90;;;;;;5034025;28;19983;-78
2021/10/18 09:31:16;;;;;;;;;;;11.60;99.90;;;;;;5034578;28;20386;-78
2021/10/18 09:33:47;;;;;;;;;;;11.50;99.90;;;;;;5032869;28;19914;-78
2021/10/18 09:36:23;;;;;;;;;;;11.60;99.90;;;;;;5030366;28;20197;-78
2021/10/18 09:38:49;;;;;;;;;;;11.60;99.90;;;;;;5034535;28;20300;-78
2021/10/18 09:41:22;;;;;;;;;;;11.70;99.90;;;;;;5033365;28;19928;-77
2021/10/18 09:43:52;;;;;;;;;;;11.70;99.90;;;;;;5030022;28;19996;-78
2021/10/18 09:46:23;;;;;;;;;;;11.90;99.90;;;;;;5031970;28;20497;-78
2021/10/18 10:53:25;;;;;;;;;;;12.90;99.90;;;;;;5031718;28;20220;-78
2021/10/18 10:55:52;;;;;;;;;;;12.80;99.90;;;;;;5030992;28;19921;-78
2021/10/18 10:58:29;;;;;;;;;;;12.80;99.90;;;;;;5032787;28;19909;-79
2021/10/18 11:00:55;;;;;;;;;;;12.80;99.90;;;;;;5043424;28;19952;-79
2021/10/18 11:03:23;;;;;;;;;;;12.80;99.90;;;;;;5029879;28;19921;-79
2021/10/18 11:06:10;;;;;;;;;;;12.90;99.90;;;;;;5031493;28;20007;-80
2021/10/18 11:08:36;;;;;;;;;;;13.00;99.90;;;;;;5033987;28;19921;-79
2021/10/18 11:11:06;;;;;;;;;;;13.10;99.90;;;;;;5029902;28;19991;-78
2021/10/18 11:13:39;;;;;;;;;;;13.20;99.90;;;;;;5027917;28;19917;-78
2021/10/18 11:16:04;;;;;;;;;;;13.30;99.90;;;;;;5044110;28;20329;-79
2021/10/18 11:18:30;;;;;;;;;;;13.30;99.90;;;;;;5026939;28;19921;-79
2021/10/18 11:20:56;;;;;;;;;;;13.30;99.90;;;;;;5032080;28;20004;-79
2021/10/18 11:23:22;;;;;;;;;;;13.30;99.90;;;;;;5031035;28;20039;-78
2021/10/18 11:25:47;;;;;;;;;;;13.30;99.90;;;;;;5032323;28;19924;-78
2021/10/18 11:28:13;;;;;;;;;;;13.40;99.90;;;;;;5032330;28;19937;-77
2021/10/18 11:30:39;;;;;;;;;;;13.40;99.90;;;;;;5032808;28;19936;-80
2021/10/18 11:33:08;;;;;;;;;;;13.50;99.90;;;;;;5033173;28;20003;-78
2021/10/18 11:35:34;;;;;;;;;;;13.50;99.90;;;;;;5032686;28;19960;-79
2021/10/18 11:38:07;;;;;;;;;;;13.50;99.90;;;;;;5033238;28;20324;-79
2021/10/18 11:40:32;;;;;;;;;;;13.60;99.90;;;;;;5032892;28;19909;-78
2021/10/18 11:43:04;;;;;;;;;;;13.60;99.90;;;;;;5049329;28;20288;-80
2021/10/18 11:45:32;;;;;;;;;;;13.70;99.90;;;;;;5030902;28;19909;-78
2021/10/18 11:48:05;;;;;;;;;;;13.60;99.90;;;;;;5033898;28;19913;-78
2021/10/18 11:50:36;;;;;;;;;;;13.70;99.90;;;;;;5030786;28;19959;-79
2021/10/18 11:53:08;;;;;;;;;;;13.70;99.90;;;;;;5024548;28;19921;-78
2021/10/18 11:55:41;;;;;;;;;;;13.70;99.90;;;;;;5032283;28;20298;-78
2021/10/18 11:58:07;;;;;;;;;;;13.70;99.90;;;;;;5032627;28;19917;-79
2021/10/18 12:00:41;;;;;;;;;;;13.70;99.90;;;;;;5033472;28;19917;-79
2021/10/18 12:03:07;;;;;;;;;;;13.80;99.90;;;;;;5034191;28;20308;-79
2021/10/18 12:05:35;;;;;;;;;;;13.80;99.90;;;;;;5034951;28;20389;-79
2021/10/18 12:08:02;;;;;;;;;;;13.80;99.90;;;;;;5035945;28;19928;-79
2021/10/18 12:10:28;;;;;;;;;;;13.80;99.90;;;;;;5033773;28;19921;-80
2021/10/18 12:13:09;;;;;;;;;;;13.80;99.90;;;;;;5036256;28;20216;-79
2021/10/18 12:15:38;;;;;;;;;;;13.70;99.90;;;;;;5037028;28;19920;-79
2021/10/18 12:18:04;;;;;;;;;;;13.70;99.90;;;;;;5042016;28;19984;-78
2021/10/18 12:20:29;;;;;;;;;;;13.70;99.90;;;;;;5028704;28;20015;-78
2021/10/18 12:22:59;;;;;;;;;;;13.80;99.90;;;;;;5036073;28;20004;-79
2021/10/18 12:25:25;;;;;;;;;;;13.80;99.90;;;;;;5032109;28;20304;-79
2021/10/18 12:27:50;;;;;;;;;;;13.80;99.90;;;;;;5035977;28;19928;-79
2021/10/18 12:30:45;;;;;;;;;;;13.80;99.90;;;;;;5034757;28;20262;-79
2021/10/18 12:33:12;;;;;;;;;;;13.90;99.90;;;;;;5052618;28;19920;-79
2021/10/18 12:35:38;;;;;;;;;;;13.90;99.90;;;;;;5050640;28;20327;-79
2021/10/18 12:38:14;;;;;;;;;;;13.90;99.90;;;;;;5050141;28;20227;-78
2021/10/18 12:40:40;;;;;;;;;;;13.90;99.90;;;;;;5052279;28;20320;-79
2021/10/18 12:43:07;;;;;;;;;;;13.90;99.90;;;;;;5053491;28;19970;-79
2021/10/18 12:45:34;;;;;;;;;;;13.90;99.90;;;;;;5051439;28;19916;-79
2021/10/18 12:48:00;;;;;;;;;;;14.00;99.90;;;;;;5036004;28;19951;-79
2021/10/18 12:50:28;;;;;;;;;;;14.00;99.90;;;;;;5050469;28;19916;-78
2021/10/18 12:52:58;;;;;;;;;;;14.00;99.90;;;;;;5033611;28;19909;-78
2021/10/18 12:55:24;;;;;;;;;;;14.10;99.90;;;;;;5039437;28;20007;-79
2021/10/18 12:57:53;;;;;;;;;;;14.10;99.90;;;;;;5037096;28;20067;-79
2021/10/18 13:00:27;;;;;;;;;;;14.20;99.90;;;;;;5036212;28;19920;-79
2021/10/18 13:02:53;;;;;;;;;;;14.10;99.90;;;;;;5033674;28;20308;-79
2021/10/18 13:05:20;;;;;;;;;;;14.10;99.90;;;;;;5030790;28;19917;-79
2021/10/18 13:07:50;;;;;;;;;;;14.20;99.90;;;;;;5046479;28;20351;-79
2021/10/18 13:10:16;;;;;;;;;;;14.10;99.90;;;;;;5033163;28;19913;-79
2021/10/18 13:12:43;;;;;;;;;;;14.20;99.90;;;;;;5031731;28;19921;-79
2021/10/18 13:15:09;;;;;;;;;;;14.20;99.90;;;;;;5044622;28;19932;-80
2021/10/18 13:17:35;;;;;;;;;;;14.30;99.90;;;;;;5037493;28;19909;-79
2021/10/18 13:20:01;;;;;;;;;;;14.50;99.90;;;;;;5036517;28;20267;-78
2021/10/18 13:22:27;;;;;;;;;;;14.60;99.90;;;;;;5035810;28;19917;-79
2021/10/18 13:24:53;;;;;;;;;;;14.80;99.90;;;;;;5034550;28;20303;-78
2021/10/18 13:27:19;;;;;;;;;;;14.90;99.90;;;;;;5028033;28;19914;-80
2021/10/18 13:29:44;;;;;;;;;;;15.00;99.90;;;;;;5041026;28;19952;-79
2021/10/18 13:32:12;;;;;;;;;;;15.10;99.90;;;;;;5035786;28;19933;-81
2021/10/18 13:34:37;;;;;;;;;;;15.30;99.90;;;;;;5033629;28;20400;-79
2021/10/18 13:37:03;;;;;;;;;;;15.30;99.90;;;;;;5033403;28;19936;-79
2021/10/18 13:39:29;;;;;;;;;;;15.40;99.90;;;;;;5033389;28;19913;-79
2021/10/18 13:41:54;;;;;;;;;;;15.30;99.90;;;;;;5028816;28;19932;-80
2021/10/18 13:44:20;;;;;;;;;;;15.20;99.90;;;;;;5033454;28;19931;-79
2021/10/18 13:46:46;;;;;;;;;;;15.10;99.90;;;;;;5032695;28;19916;-80
2021/10/18 13:49:11;;;;;;;;;;;15.00;99.90;;;;;;5032472;28;19921;-78
2021/10/18 13:51:37;;;;;;;;;;;14.90;99.90;;;;;;5031682;28;20008;-80
2021/10/18 13:54:03;;;;;;;;;;;14.80;99.90;;;;;;5032101;28;19977;-79
2021/10/18 13:56:29;;;;;;;;;;;14.70;99.90;;;;;;5036525;28;19916;-79
2021/10/18 13:58:55;;;;;;;;;;;14.70;99.90;;;;;;5034066;28;19932;-79
2021/10/18 14:01:20;;;;;;;;;;;14.70;99.90;;;;;;5035442;28;20028;-80
2021/10/18 14:03:46;;;;;;;;;;;14.60;99.90;;;;;;5034319;28;19993;-80
2021/10/18 14:06:14;;;;;;;;;;;14.70;99.90;;;;;;5041404;28;19917;-79
2021/10/18 14:08:40;;;;;;;;;;;14.60;99.90;;;;;;5033017;28;19927;-80
2021/10/18 14:11:06;;;;;;;;;;;14.70;99.90;;;;;;5022563;28;20362;-80
2021/10/18 14:13:34;;;;;;;;;;;14.70;99.90;;;;;;5034957;28;19917;-79
2021/10/18 14:16:00;;;;;;;;;;;14.60;99.90;;;;;;5023104;28;19909;-79
2021/10/18 14:18:25;;;;;;;;;;;14.60;99.90;;;;;;5027921;28;19920;-81
2021/10/18 14:20:51;;;;;;;;;;;14.60;99.90;;;;;;5028634;28;19931;-79
2021/10/18 14:23:17;;;;;;;;;;;14.60;99.90;;;;;;5033235;28;20228;-80
2021/10/18 14:25:43;;;;;;;;;;;14.60;99.90;;;;;;5028676;28;19921;-81
2021/10/18 14:28:09;;;;;;;;;;;14.60;99.90;;;;;;5033104;28;19916;-80
2021/10/18 14:30:36;;;;;;;;;;;14.60;99.90;;;;;;5043890;28;19917;-80
2021/10/18 14:33:01;;;;;;;;;;;14.50;99.90;;;;;;5031554;28;19909;-79
2021/10/18 14:35:27;;;;;;;;;;;14.50;99.90;;;;;;5021456;28;20015;-80
2021/10/18 14:37:52;;;;;;;;;;;14.50;99.90;;;;;;5031608;28;20359;-80
2021/10/18 14:40:18;;;;;;;;;;;14.50;99.90;;;;;;5029337;28;19992;-79
2021/10/18 14:42:44;;;;;;;;;;;14.40;99.90;;;;;;5032810;28;20007;-79
2021/10/18 14:45:09;;;;;;;;;;;14.40;99.90;;;;;;5033940;28;19918;-80
2021/10/18 14:47:35;;;;;;;;;;;14.40;99.90;;;;;;5032879;28;19928;-80
2021/10/18 14:50:02;;;;;;;;;;;14.30;99.90;;;;;;5033780;28;19949;-78
2021/10/18 14:52:28;;;;;;;;;;;14.30;99.90;;;;;;5032457;28;19928;-79
2021/10/18 14:54:53;;;;;;;;;;;14.20;99.90;;;;;;5034327;28;20012;-80
2021/10/18 14:57:19;;;;;;;;;;;14.20;99.90;;;;;;5050125;28;20263;-80
2021/10/18 14:59:44;;;;;;;;;;;14.10;99.90;;;;;;5034632;28;19909;-80
2021/10/18 15:02:13;;;;;;;;;;;14.10;99.90;;;;;;5033825;28;20344;-80
2021/10/18 15:04:39;;;;;;;;;;;14.10;99.90;;;;;;5019987;28;19921;-80
2021/10/18 15:07:05;;;;;;;;;;;14.10;99.90;;;;;;5023104;28;19956;-80
2021/10/18 15:09:34;;;;;;;;;;;14.00;99.90;;;;;;5017855;28;20015;-78
2021/10/18 15:12:00;;;;;;;;;;;14.10;99.90;;;;;;5033494;28;19910;-79
2021/10/18 15:14:25;;;;;;;;;;;14.00;99.90;;;;;;5027589;28;19921;-80
2021/10/18 15:16:51;;;;;;;;;;;14.10;99.90;;;;;;5035557;28;19953;-78
2021/10/18 15:19:16;;;;;;;;;;;14.10;99.90;;;;;;5035202;28;19909;-79
2021/10/18 15:21:44;;;;;;;;;;;14.10;99.90;;;;;;5032169;28;20419;-79
2021/10/18 15:24:22;;;;;;;;;;;14.10;99.90;;;;;;5033309;28;19925;-80